createdAt,value
2022-12-31T00:03:19.519Z,10.40
2022-12-31T00:08:21.933Z,10.10
2022-12-31T00:13:24.235Z,10.20
2022-12-31T00:18:27.063Z,10.20
2022-12-31T00:23:29.329Z,10.20
2022-12-31T00:28:31.804Z,10.10
2022-12-31T00:33:34.095Z,10.10
2022-12-31T00:38:37.705Z,10.10
2022-12-31T00:43:40.348Z,10.00
2022-12-31T00:48:43.096Z,9.90
2022-12-31T00:53:46.288Z,9.90
2022-12-31T00:58:48.628Z,9.70
2022-12-31T01:03:55.181Z,9.60
2022-12-31T01:08:57.557Z,9.40
2022-12-31T01:19:13.537Z,9.30
2022-12-31T01:24:16.487Z,9.00
2022-12-31T01:29:18.813Z,8.80
2022-12-31T01:34:21.175Z,8.80
2022-12-31T01:39:23.412Z,8.90
2022-12-31T01:54:55.451Z,9.00
2022-12-31T02:00:00.340Z,8.90
2022-12-31T02:05:11.825Z,9.00
2022-12-31T02:10:14.047Z,9.00
2022-12-31T02:15:16.903Z,9.00
2022-12-31T02:20:46.590Z,8.90
2022-12-31T02:31:17.064Z,8.90
2022-12-31T02:36:24.272Z,8.90
2022-12-31T02:41:46.473Z,8.80
2022-12-31T02:47:15.356Z,8.80
2022-12-31T03:02:46.792Z,8.50
2022-12-31T03:07:49.189Z,8.30
2022-12-31T03:12:51.689Z,8.40
2022-12-31T03:23:12.283Z,8.40
2022-12-31T03:28:17.601Z,8.30
2022-12-31T03:33:20.715Z,8.30
2022-12-31T03:38:23.090Z,8.30
2022-12-31T03:43:25.322Z,8.40
2022-12-31T03:48:27.739Z,8.30
2022-12-31T03:53:30.394Z,8.50
2022-12-31T03:58:32.646Z,8.40
2022-12-31T04:03:35.052Z,8.50
2022-12-31T04:08:37.254Z,8.60
2022-12-31T04:13:39.558Z,8.60
2022-12-31T04:18:41.815Z,8.70
2022-12-31T04:23:44.103Z,8.70
2022-12-31T04:28:46.391Z,8.70
2022-12-31T04:33:48.627Z,8.80
2022-12-31T04:38:50.887Z,8.90
2022-12-31T04:43:56.109Z,8.90
2022-12-31T04:48:58.853Z,9.00
2022-12-31T04:54:01.413Z,8.90
2022-12-31T04:59:05.188Z,8.90
2022-12-31T05:04:07.402Z,8.90
2022-12-31T05:09:09.662Z,9.00
2022-12-31T05:14:11.900Z,8.80
2022-12-31T05:19:15.359Z,8.90
2022-12-31T05:24:17.622Z,8.80
2022-12-31T05:29:19.949Z,8.90
2022-12-31T05:34:22.219Z,8.60
2022-12-31T05:39:24.490Z,8.70
2022-12-31T05:44:26.953Z,8.70
2022-12-31T05:49:29.197Z,8.70
2022-12-31T05:54:31.698Z,8.60
2022-12-31T05:59:34.601Z,8.50
2022-12-31T06:05:06.336Z,8.40
2022-12-31T06:10:09.191Z,8.40
2022-12-31T06:15:11.722Z,8.50
2022-12-31T06:20:13.943Z,8.50
2022-12-31T06:25:16.326Z,8.50
2022-12-31T06:30:18.690Z,8.40
2022-12-31T06:35:21.223Z,8.60
2022-12-31T06:40:23.749Z,8.60
2022-12-31T06:45:26.017Z,8.50
2022-12-31T06:50:28.250Z,8.50
2022-12-31T06:55:30.956Z,8.40
2022-12-31T07:00:33.519Z,8.50
2022-12-31T07:11:02.212Z,8.50
2022-12-31T07:16:25.988Z,8.50
2022-12-31T07:21:35.610Z,8.70
2022-12-31T07:27:17.547Z,8.80
2022-12-31T07:43:15.830Z,9.80
2022-12-31T07:48:24.141Z,10.30
2022-12-31T07:53:27.055Z,11.10
2022-12-31T08:14:15.880Z,13.50
2022-12-31T08:30:06.187Z,22.30
2022-12-31T08:45:43.766Z,24.50
2022-12-31T08:50:46.483Z,25.90
2022-12-31T08:55:53.052Z,26.20
2022-12-31T09:00:57.805Z,26.30
2022-12-31T09:12:04.504Z,25.00
2022-12-31T09:22:39.819Z,21.80
2022-12-31T09:27:58.291Z,20.90
2022-12-31T09:54:29.362Z,18.90
2022-12-31T10:15:45.701Z,17.80
2022-12-31T10:31:39.282Z,17.10
2022-12-31T10:37:05.692Z,17.20
2022-12-31T10:42:47.842Z,17.20
2022-12-31T11:04:11.721Z,17.30
2022-12-31T11:20:07.873Z,16.70
2022-12-31T11:41:10.176Z,15.50
2022-12-31T11:57:37.515Z,15.70
2022-12-31T12:02:45.840Z,16.00
2022-12-31T12:07:52.128Z,16.00
2022-12-31T12:12:56.880Z,16.10
2022-12-31T12:18:06.702Z,16.20
2022-12-31T12:23:26.287Z,16.20
2022-12-31T12:28:31.621Z,16.60
2022-12-31T12:33:44.833Z,16.60
2022-12-31T12:38:47.375Z,16.50
2022-12-31T12:43:49.858Z,16.40
2022-12-31T12:48:56.898Z,16.40
2022-12-31T12:54:27.786Z,16.30
2022-12-31T13:15:22.366Z,16.40
2022-12-31T13:20:48.989Z,16.00
2022-12-31T13:26:16.643Z,15.70
2022-12-31T13:31:26.493Z,15.40
2022-12-31T13:36:32.827Z,15.00
2022-12-31T13:41:41.749Z,14.70
2022-12-31T13:57:37.525Z,13.50
2022-12-31T14:07:54.694Z,13.10
2022-12-31T14:18:27.380Z,12.40
2022-12-31T14:23:56.375Z,12.20
2022-12-31T14:50:17.733Z,11.50
2022-12-31T15:05:53.704Z,11.50
2022-12-31T15:26:57.539Z,12.20
2022-12-31T15:32:03.772Z,12.20
2022-12-31T15:37:27.685Z,12.20
2022-12-31T15:42:47.257Z,12.30
2022-12-31T15:47:58.366Z,12.30
2022-12-31T15:53:03.727Z,12.30
2022-12-31T15:58:12.395Z,12.30
2022-12-31T16:03:25.753Z,12.30
2022-12-31T16:08:31.963Z,12.30
2022-12-31T16:13:39.429Z,12.30
2022-12-31T16:18:43.825Z,12.20
2022-12-31T16:23:51.775Z,12.20
2022-12-31T16:29:00.002Z,12.10
2022-12-31T16:34:05.274Z,12.10
2022-12-31T16:39:24.861Z,12.10
2022-12-31T16:44:29.823Z,12.00
2022-12-31T16:49:35.157Z,12.00
2022-12-31T16:54:40.432Z,12.00
2022-12-31T17:16:20.630Z,11.60
2022-12-31T17:21:27.467Z,11.80
2022-12-31T17:26:32.776Z,11.90
2022-12-31T17:31:59.665Z,11.90
2022-12-31T17:37:25.775Z,12.00
2022-12-31T17:42:34.565Z,12.00
2022-12-31T17:47:40.527Z,12.10
2022-12-31T17:52:42.795Z,12.10
2022-12-31T17:57:52.714Z,12.00
2022-12-31T18:02:55.068Z,12.00
2022-12-31T18:07:57.315Z,11.90
2022-12-31T18:13:01.579Z,11.80
2022-12-31T18:18:24.777Z,11.70
2022-12-31T18:23:31.271Z,11.60
2022-12-31T18:28:33.568Z,11.60
2022-12-31T18:33:35.772Z,11.50
2022-12-31T18:38:38.004Z,11.50
2022-12-31T18:43:40.231Z,11.40
2022-12-31T18:48:42.980Z,11.40
2022-12-31T18:53:45.563Z,11.40
2022-12-31T18:58:48.290Z,11.30
2022-12-31T19:03:50.544Z,11.30
2022-12-31T19:08:52.846Z,11.30
2022-12-31T19:13:55.131Z,11.20
2022-12-31T19:18:57.430Z,11.20
2022-12-31T19:23:59.628Z,11.10
2022-12-31T19:29:01.927Z,11.10
2022-12-31T19:34:04.190Z,11.10
2022-12-31T19:39:10.211Z,11.20
2022-12-31T19:44:16.235Z,11.20
2022-12-31T19:49:18.625Z,11.30
2022-12-31T19:54:20.873Z,11.30
2022-12-31T19:59:23.128Z,11.40
2022-12-31T20:04:25.417Z,11.40
2022-12-31T20:09:27.665Z,11.40
2022-12-31T20:14:30.063Z,11.40
2022-12-31T20:19:32.295Z,11.40
2022-12-31T20:24:34.488Z,11.40
2022-12-31T20:29:37.378Z,11.40
2022-12-31T20:34:39.656Z,11.40
2022-12-31T20:39:42.746Z,11.50
2022-12-31T20:44:44.977Z,11.50
2022-12-31T20:50:12.816Z,11.60
2022-12-31T20:55:10.303Z,11.60
2022-12-31T21:00:14.908Z,11.60
2022-12-31T21:05:17.413Z,11.60
2022-12-31T21:10:19.806Z,11.60
2022-12-31T21:15:22.129Z,11.60
2022-12-31T21:20:24.409Z,11.60
2022-12-31T21:25:26.618Z,11.60
2022-12-31T21:30:28.903Z,11.60
2022-12-31T21:35:43.476Z,11.70
2022-12-31T21:40:47.850Z,11.70
2022-12-31T21:46:00.671Z,11.60
2022-12-31T21:51:09.659Z,11.60
2022-12-31T21:56:14.564Z,11.60
2022-12-31T22:01:40.590Z,11.70
2022-12-31T22:06:43.047Z,11.70
2022-12-31T22:11:45.370Z,11.70
2022-12-31T22:16:47.570Z,11.70
2022-12-31T22:21:49.820Z,11.70
2022-12-31T22:26:54.220Z,11.80
2022-12-31T22:32:00.997Z,11.80
2022-12-31T22:37:20.339Z,11.70
2022-12-31T22:42:25.769Z,11.60
2022-12-31T22:47:27.992Z,11.60
2022-12-31T22:52:30.975Z,11.50
2022-12-31T22:57:33.312Z,11.50
2022-12-31T23:02:41.371Z,11.50
2022-12-31T23:07:44.136Z,11.40
2022-12-31T23:12:46.395Z,11.40
2022-12-31T23:18:08.574Z,11.40
2022-12-31T23:23:16.282Z,11.40
2022-12-31T23:28:22.011Z,11.30
2022-12-31T23:33:25.890Z,11.30
2022-12-31T23:38:28.166Z,11.20
2022-12-31T23:43:30.415Z,11.20
2022-12-31T23:48:32.661Z,11.30
2022-12-31T23:53:36.937Z,11.40
2022-12-31T23:58:39.178Z,11.40
